sensor_id;sensor_type;location;lat;lon;timestamp;temperature;humidity
8832;DHT22;4452;50.756;4.472;2024-03-22T00:00:57;11.60;99.90
8832;DHT22;4452;50.756;4.472;2024-03-22T00:03:23;11.60;99.90
8832;DHT22;4452;50.756;4.472;2024-03-22T00:05:48;11.70;99.90
8832;DHT22;4452;50.756;4.472;2024-03-22T00:08:14;11.70;99.90
8832;DHT22;4452;50.756;4.472;2024-03-22T00:10:40;11.70;99.90
8832;DHT22;4452;50.756;4.472;2024-03-22T00:13:06;11.70;99.90
8832;DHT22;4452;50.756;4.472;2024-03-22T00:15:31;11.70;99.90
8832;DHT22;4452;50.756;4.472;2024-03-22T00:17:57;11.70;99.90
8832;DHT22;4452;50.756;4.472;2024-03-22T00:20:23;11.70;99.90
8832;DHT22;4452;50.756;4.472;2024-03-22T00:22:48;11.70;99.90
8832;DHT22;4452;50.756;4.472;2024-03-22T00:25:14;11.70;99.90
8832;DHT22;4452;50.756;4.472;2024-03-22T00:27:40;11.70;99.90
8832;DHT22;4452;50.756;4.472;2024-03-22T00:30:05;11.70;99.90
8832;DHT22;4452;50.756;4.472;2024-03-22T00:32:31;11.70;99.90
8832;DHT22;4452;50.756;4.472;2024-03-22T00:34:57;11.70;99.90
8832;DHT22;4452;50.756;4.472;2024-03-22T00:37:22;11.70;99.90
8832;DHT22;4452;50.756;4.472;2024-03-22T00:39:48;11.80;99.90
8832;DHT22;4452;50.756;4.472;2024-03-22T00:42:14;11.80;99.90
8832;DHT22;4452;50.756;4.472;2024-03-22T00:44:39;11.80;99.90
8832;DHT22;4452;50.756;4.472;2024-03-22T00:47:05;11.80;99.90
8832;DHT22;4452;50.756;4.472;2024-03-22T00:49:31;11.80;99.90
8832;DHT22;4452;50.756;4.472;2024-03-22T00:51:57;11.80;99.90
8832;DHT22;4452;50.756;4.472;2024-03-22T00:54:23;11.80;99.90
8832;DHT22;4452;50.756;4.472;2024-03-22T00:56:49;11.80;99.90
8832;DHT22;4452;50.756;4.472;2024-03-22T00:59:14;11.80;99.90
8832;DHT22;4452;50.756;4.472;2024-03-22T01:01:40;11.80;99.90
8832;DHT22;4452;50.756;4.472;2024-03-22T01:04:06;11.80;99.90
8832;DHT22;4452;50.756;4.472;2024-03-22T01:06:34;11.80;99.90
8832;DHT22;4452;50.756;4.472;2024-03-22T01:09:00;11.80;99.90
8832;DHT22;4452;50.756;4.472;2024-03-22T01:11:26;11.80;99.90
8832;DHT22;4452;50.756;4.472;2024-03-22T01:13:51;11.80;99.90
8832;DHT22;4452;50.756;4.472;2024-03-22T01:16:17;11.80;99.90
8832;DHT22;4452;50.756;4.472;2024-03-22T01:18:43;11.80;99.90
8832;DHT22;4452;50.756;4.472;2024-03-22T01:21:08;11.80;99.90
8832;DHT22;4452;50.756;4.472;2024-03-22T01:23:34;11.80;99.90
8832;DHT22;4452;50.756;4.472;2024-03-22T01:26:00;11.80;99.90
8832;DHT22;4452;50.756;4.472;2024-03-22T01:28:25;11.70;99.90
8832;DHT22;4452;50.756;4.472;2024-03-22T01:30:51;11.60;99.90
8832;DHT22;4452;50.756;4.472;2024-03-22T01:33:16;11.60;99.90
8832;DHT22;4452;50.756;4.472;2024-03-22T01:35:42;11.60;99.90
8832;DHT22;4452;50.756;4.472;2024-03-22T01:38:08;11.50;99.90
8832;DHT22;4452;50.756;4.472;2024-03-22T01:40:33;11.60;99.90
8832;DHT22;4452;50.756;4.472;2024-03-22T01:43:00;11.50;99.90
8832;DHT22;4452;50.756;4.472;2024-03-22T01:45:25;11.50;99.90
8832;DHT22;4452;50.756;4.472;2024-03-22T01:47:54;11.40;99.90
8832;DHT22;4452;50.756;4.472;2024-03-22T01:50:21;11.40;99.90
8832;DHT22;4452;50.756;4.472;2024-03-22T01:52:47;11.40;99.90
8832;DHT22;4452;50.756;4.472;2024-03-22T01:55:13;11.40;99.90
8832;DHT22;4452;50.756;4.472;2024-03-22T01:57:40;11.40;99.90
8832;DHT22;4452;50.756;4.472;2024-03-22T02:00:06;11.40;99.90
8832;DHT22;4452;50.756;4.472;2024-03-22T02:02:34;11.30;99.90
8832;DHT22;4452;50.756;4.472;2024-03-22T02:05:10;11.30;99.90
8832;DHT22;4452;50.756;4.472;2024-03-22T02:07:36;11.40;99.90
8832;DHT22;4452;50.756;4.472;2024-03-22T02:10:02;11.30;99.90
8832;DHT22;4452;50.756;4.472;2024-03-22T02:12:28;11.20;99.90
8832;DHT22;4452;50.756;4.472;2024-03-22T02:14:53;11.10;99.90
8832;DHT22;4452;50.756;4.472;2024-03-22T02:17:19;11.10;99.90
8832;DHT22;4452;50.756;4.472;2024-03-22T02:19:44;11.10;99.90
8832;DHT22;4452;50.756;4.472;2024-03-22T02:22:10;11.10;99.90
8832;DHT22;4452;50.756;4.472;2024-03-22T02:24:36;11.10;99.90
8832;DHT22;4452;50.756;4.472;2024-03-22T02:27:01;11.10;99.90
8832;DHT22;4452;50.756;4.472;2024-03-22T02:29:27;11.10;99.90
8832;DHT22;4452;50.756;4.472;2024-03-22T02:31:53;11.00;99.90
8832;DHT22;4452;50.756;4.472;2024-03-22T02:34:19;11.00;99.90
8832;DHT22;4452;50.756;4.472;2024-03-22T02:36:44;11.10;99.90
8832;DHT22;4452;50.756;4.472;2024-03-22T02:39:10;11.10;99.90
8832;DHT22;4452;50.756;4.472;2024-03-22T02:41:36;11.10;99.90
8832;DHT22;4452;50.756;4.472;2024-03-22T02:44:02;11.00;99.90
8832;DHT22;4452;50.756;4.472;2024-03-22T02:46:27;11.00;99.90
8832;DHT22;4452;50.756;4.472;2024-03-22T02:48:53;11.00;99.90
8832;DHT22;4452;50.756;4.472;2024-03-22T02:51:19;11.00;99.90
8832;DHT22;4452;50.756;4.472;2024-03-22T02:53:44;11.00;99.90
8832;DHT22;4452;50.756;4.472;2024-03-22T02:56:10;11.00;99.90
8832;DHT22;4452;50.756;4.472;2024-03-22T02:58:36;11.00;99.90
8832;DHT22;4452;50.756;4.472;2024-03-22T03:01:02;10.90;99.90
8832;DHT22;4452;50.756;4.472;2024-03-22T03:03:29;11.00;99.90
8832;DHT22;4452;50.756;4.472;2024-03-22T03:05:54;11.00;99.90
8832;DHT22;4452;50.756;4.472;2024-03-22T03:08:21;11.00;99.90
8832;DHT22;4452;50.756;4.472;2024-03-22T03:10:46;11.00;99.90
8832;DHT22;4452;50.756;4.472;2024-03-22T03:13:12;11.00;99.90
8832;DHT22;4452;50.756;4.472;2024-03-22T03:15:38;11.00;99.90
8832;DHT22;4452;50.756;4.472;2024-03-22T03:18:03;11.00;99.90
8832;DHT22;4452;50.756;4.472;2024-03-22T03:20:29;10.90;99.90
8832;DHT22;4452;50.756;4.472;2024-03-22T03:22:55;11.00;99.90
8832;DHT22;4452;50.756;4.472;2024-03-22T03:25:23;11.00;99.90
8832;DHT22;4452;50.756;4.472;2024-03-22T03:27:48;11.00;99.90
8832;DHT22;4452;50.756;4.472;2024-03-22T03:30:14;11.00;99.90
8832;DHT22;4452;50.756;4.472;2024-03-22T03:32:41;11.10;99.90
8832;DHT22;4452;50.756;4.472;2024-03-22T03:35:06;11.00;99.90
8832;DHT22;4452;50.756;4.472;2024-03-22T03:37:32;11.00;99.90
8832;DHT22;4452;50.756;4.472;2024-03-22T03:39:58;11.10;99.90
8832;DHT22;4452;50.756;4.472;2024-03-22T03:42:24;11.10;99.90
8832;DHT22;4452;50.756;4.472;2024-03-22T03:44:49;11.10;99.90
8832;DHT22;4452;50.756;4.472;2024-03-22T03:47:15;11.10;99.90
8832;DHT22;4452;50.756;4.472;2024-03-22T03:49:41;11.00;99.90
8832;DHT22;4452;50.756;4.472;2024-03-22T03:52:06;11.00;99.90
8832;DHT22;4452;50.756;4.472;2024-03-22T03:54:32;11.00;99.90
8832;DHT22;4452;50.756;4.472;2024-03-22T03:56:58;11.10;99.90
8832;DHT22;4452;50.756;4.472;2024-03-22T03:59:23;11.10;99.90
8832;DHT22;4452;50.756;4.472;2024-03-22T04:01:50;11.10;99.90
8832;DHT22;4452;50.756;4.472;2024-03-22T04:04:15;11.10;99.90
8832;DHT22;4452;50.756;4.472;2024-03-22T04:06:41;11.10;99.90
8832;DHT22;4452;50.756;4.472;2024-03-22T04:09:09;11.10;99.90
8832;DHT22;4452;50.756;4.472;2024-03-22T04:11:35;11.10;99.90
8832;DHT22;4452;50.756;4.472;2024-03-22T04:14:00;11.10;99.90
8832;DHT22;4452;50.756;4.472;2024-03-22T04:16:26;11.00;99.90
8832;DHT22;4452;50.756;4.472;2024-03-22T04:18:53;11.00;99.90
8832;DHT22;4452;50.756;4.472;2024-03-22T04:21:18;11.10;99.90
8832;DHT22;4452;50.756;4.472;2024-03-22T04:23:44;11.00;99.90
8832;DHT22;4452;50.756;4.472;2024-03-22T04:26:10;11.00;99.90
8832;DHT22;4452;50.756;4.472;2024-03-22T04:28:36;11.00;99.90
8832;DHT22;4452;50.756;4.472;2024-03-22T04:31:07;11.00;99.90
8832;DHT22;4452;50.756;4.472;2024-03-22T04:33:37;11.00;99.90
8832;DHT22;4452;50.756;4.472;2024-03-22T04:36:03;11.00;99.90
8832;DHT22;4452;50.756;4.472;2024-03-22T04:38:29;11.00;99.90
8832;DHT22;4452;50.756;4.472;2024-03-22T04:40:56;11.00;99.90
8832;DHT22;4452;50.756;4.472;2024-03-22T04:43:24;11.00;99.90
8832;DHT22;4452;50.756;4.472;2024-03-22T04:45:50;11.00;99.90
8832;DHT22;4452;50.756;4.472;2024-03-22T04:48:20;11.00;99.90
8832;DHT22;4452;50.756;4.472;2024-03-22T04:50:47;11.00;99.90
8832;DHT22;4452;50.756;4.472;2024-03-22T04:53:24;11.00;99.90
8832;DHT22;4452;50.756;4.472;2024-03-22T04:55:50;11.00;99.90
8832;DHT22;4452;50.756;4.472;2024-03-22T04:58:18;10.90;99.90
8832;DHT22;4452;50.756;4.472;2024-03-22T05:00:44;10.90;99.90
8832;DHT22;4452;50.756;4.472;2024-03-22T05:03:10;10.90;99.90
8832;DHT22;4452;50.756;4.472;2024-03-22T05:05:36;10.90;99.90
8832;DHT22;4452;50.756;4.472;2024-03-22T05:08:02;10.90;99.90
8832;DHT22;4452;50.756;4.472;2024-03-22T05:10:29;10.90;99.90
8832;DHT22;4452;50.756;4.472;2024-03-22T05:12:56;10.90;99.90
8832;DHT22;4452;50.756;4.472;2024-03-22T05:15:22;10.80;99.90
8832;DHT22;4452;50.756;4.472;2024-03-22T05:17:49;10.90;99.90
8832;DHT22;4452;50.756;4.472;2024-03-22T05:20:15;10.80;99.90
8832;DHT22;4452;50.756;4.472;2024-03-22T05:22:42;10.80;99.90
8832;DHT22;4452;50.756;4.472;2024-03-22T05:25:08;10.80;99.90
8832;DHT22;4452;50.756;4.472;2024-03-22T05:27:34;10.80;99.90
8832;DHT22;4452;50.756;4.472;2024-03-22T05:30:00;10.80;99.90
8832;DHT22;4452;50.756;4.472;2024-03-22T05:32:26;10.80;99.90
8832;DHT22;4452;50.756;4.472;2024-03-22T05:34:52;10.80;99.90
8832;DHT22;4452;50.756;4.472;2024-03-22T05:37:18;10.80;99.90
8832;DHT22;4452;50.756;4.472;2024-03-22T05:39:44;10.80;99.90
8832;DHT22;4452;50.756;4.472;2024-03-22T05:42:10;10.70;99.90
8832;DHT22;4452;50.756;4.472;2024-03-22T05:44:35;10.80;99.90
8832;DHT22;4452;50.756;4.472;2024-03-22T05:47:01;10.70;99.90
8832;DHT22;4452;50.756;4.472;2024-03-22T05:49:27;10.70;99.90
8832;DHT22;4452;50.756;4.472;2024-03-22T05:51:53;10.70;99.90
8832;DHT22;4452;50.756;4.472;2024-03-22T05:54:18;10.70;99.90
8832;DHT22;4452;50.756;4.472;2024-03-22T05:56:45;10.60;99.90
8832;DHT22;4452;50.756;4.472;2024-03-22T05:59:11;10.70;99.90
8832;DHT22;4452;50.756;4.472;2024-03-22T06:01:36;10.60;99.90
8832;DHT22;4452;50.756;4.472;2024-03-22T06:04:04;10.60;99.90
8832;DHT22;4452;50.756;4.472;2024-03-22T06:06:34;10.60;99.90
8832;DHT22;4452;50.756;4.472;2024-03-22T06:09:01;10.60;99.90
8832;DHT22;4452;50.756;4.472;2024-03-22T06:11:30;10.60;99.90
8832;DHT22;4452;50.756;4.472;2024-03-22T06:13:55;10.50;99.90
8832;DHT22;4452;50.756;4.472;2024-03-22T06:16:21;10.50;99.90
8832;DHT22;4452;50.756;4.472;2024-03-22T06:18:47;10.50;99.90
8832;DHT22;4452;50.756;4.472;2024-03-22T06:21:13;10.50;99.90
8832;DHT22;4452;50.756;4.472;2024-03-22T06:23:49;10.50;99.90
8832;DHT22;4452;50.756;4.472;2024-03-22T06:26:15;10.50;99.90
8832;DHT22;4452;50.756;4.472;2024-03-22T06:28:40;10.50;99.90
8832;DHT22;4452;50.756;4.472;2024-03-22T06:31:07;10.50;99.90
8832;DHT22;4452;50.756;4.472;2024-03-22T06:33:33;10.40;99.90
8832;DHT22;4452;50.756;4.472;2024-03-22T06:35:59;10.40;99.90
8832;DHT22;4452;50.756;4.472;2024-03-22T06:38:25;10.40;99.90
8832;DHT22;4452;50.756;4.472;2024-03-22T06:40:51;10.40;99.90
8832;DHT22;4452;50.756;4.472;2024-03-22T06:43:17;10.40;99.90
8832;DHT22;4452;50.756;4.472;2024-03-22T06:45:42;10.30;99.90
8832;DHT22;4452;50.756;4.472;2024-03-22T06:48:08;10.30;99.90
8832;DHT22;4452;50.756;4.472;2024-03-22T06:50:33;10.30;99.90
8832;DHT22;4452;50.756;4.472;2024-03-22T06:53:00;10.20;99.90
8832;DHT22;4452;50.756;4.472;2024-03-22T06:55:26;10.20;99.90
8832;DHT22;4452;50.756;4.472;2024-03-22T06:57:51;10.10;99.90
8832;DHT22;4452;50.756;4.472;2024-03-22T07:00:18;10.20;99.90
8832;DHT22;4452;50.756;4.472;2024-03-22T07:02:44;10.10;99.90
8832;DHT22;4452;50.756;4.472;2024-03-22T07:05:10;10.20;99.90
8832;DHT22;4452;50.756;4.472;2024-03-22T07:07:37;10.10;99.90
8832;DHT22;4452;50.756;4.472;2024-03-22T07:10:03;10.00;99.90
8832;DHT22;4452;50.756;4.472;2024-03-22T07:12:31;10.00;99.90
8832;DHT22;4452;50.756;4.472;2024-03-22T07:14:58;10.00;99.90
8832;DHT22;4452;50.756;4.472;2024-03-22T07:17:24;10.00;99.90
8832;DHT22;4452;50.756;4.472;2024-03-22T07:19:51;10.00;99.90
8832;DHT22;4452;50.756;4.472;2024-03-22T07:22:17;10.00;99.90
8832;DHT22;4452;50.756;4.472;2024-03-22T07:24:43;10.00;99.90
8832;DHT22;4452;50.756;4.472;2024-03-22T07:27:08;10.00;99.90
8832;DHT22;4452;50.756;4.472;2024-03-22T07:29:35;10.00;99.90
8832;DHT22;4452;50.756;4.472;2024-03-22T07:32:00;9.90;99.90
8832;DHT22;4452;50.756;4.472;2024-03-22T07:34:26;10.00;99.90
8832;DHT22;4452;50.756;4.472;2024-03-22T07:36:52;10.00;99.90
8832;DHT22;4452;50.756;4.472;2024-03-22T07:39:17;10.10;99.90
8832;DHT22;4452;50.756;4.472;2024-03-22T07:41:43;10.00;99.90
8832;DHT22;4452;50.756;4.472;2024-03-22T07:44:09;9.90;99.90
8832;DHT22;4452;50.756;4.472;2024-03-22T07:46:34;9.90;99.90
8832;DHT22;4452;50.756;4.472;2024-03-22T07:49:00;9.90;99.90
8832;DHT22;4452;50.756;4.472;2024-03-22T07:51:26;9.90;99.90
8832;DHT22;4452;50.756;4.472;2024-03-22T07:53:52;9.90;99.90
8832;DHT22;4452;50.756;4.472;2024-03-22T07:56:18;9.90;99.90
8832;DHT22;4452;50.756;4.472;2024-03-22T07:58:44;9.90;99.90
8832;DHT22;4452;50.756;4.472;2024-03-22T08:01:10;10.00;99.90
8832;DHT22;4452;50.756;4.472;2024-03-22T08:03:36;10.00;99.90
8832;DHT22;4452;50.756;4.472;2024-03-22T08:06:01;9.90;99.90
8832;DHT22;4452;50.756;4.472;2024-03-22T08:08:27;10.00;99.90
8832;DHT22;4452;50.756;4.472;2024-03-22T08:10:53;10.00;99.90
8832;DHT22;4452;50.756;4.472;2024-03-22T08:13:18;10.00;99.90
8832;DHT22;4452;50.756;4.472;2024-03-22T08:15:44;10.10;99.90
8832;DHT22;4452;50.756;4.472;2024-03-22T08:18:13;10.10;99.90
8832;DHT22;4452;50.756;4.472;2024-03-22T08:20:39;10.00;99.90
8832;DHT22;4452;50.756;4.472;2024-03-22T08:23:05;10.10;99.90
8832;DHT22;4452;50.756;4.472;2024-03-22T08:25:31;10.10;99.90
8832;DHT22;4452;50.756;4.472;2024-03-22T08:27:57;10.10;99.90
8832;DHT22;4452;50.756;4.472;2024-03-22T08:30:24;10.00;99.90
8832;DHT22;4452;50.756;4.472;2024-03-22T08:32:50;10.20;99.90
8832;DHT22;4452;50.756;4.472;2024-03-22T08:35:16;10.10;99.90
8832;DHT22;4452;50.756;4.472;2024-03-22T08:37:42;10.10;99.90
8832;DHT22;4452;50.756;4.472;2024-03-22T08:40:08;10.00;99.90
8832;DHT22;4452;50.756;4.472;2024-03-22T08:42:34;10.10;99.90
8832;DHT22;4452;50.756;4.472;2024-03-22T08:44:59;10.10;99.90
8832;DHT22;4452;50.756;4.472;2024-03-22T08:47:25;10.10;99.90
8832;DHT22;4452;50.756;4.472;2024-03-22T08:49:51;10.10;99.90
8832;DHT22;4452;50.756;4.472;2024-03-22T08:52:17;10.10;99.90
8832;DHT22;4452;50.756;4.472;2024-03-22T08:54:43;10.20;99.90
8832;DHT22;4452;50.756;4.472;2024-03-22T08:57:09;10.20;99.90
8832;DHT22;4452;50.756;4.472;2024-03-22T08:59:34;10.20;99.90
8832;DHT22;4452;50.756;4.472;2024-03-22T09:02:00;10.30;99.90
8832;DHT22;4452;50.756;4.472;2024-03-22T09:04:26;10.40;99.90
8832;DHT22;4452;50.756;4.472;2024-03-22T09:06:52;10.50;99.90
8832;DHT22;4452;50.756;4.472;2024-03-22T09:09:18;10.50;99.90
8832;DHT22;4452;50.756;4.472;2024-03-22T09:11:43;10.70;99.90
8832;DHT22;4452;50.756;4.472;2024-03-22T09:14:09;10.60;99.90
8832;DHT22;4452;50.756;4.472;2024-03-22T09:16:35;10.60;99.90
8832;DHT22;4452;50.756;4.472;2024-03-22T09:19:00;10.70;99.90
8832;DHT22;4452;50.756;4.472;2024-03-22T09:21:26;10.90;99.90
8832;DHT22;4452;50.756;4.472;2024-03-22T09:23:52;10.80;99.90
8832;DHT22;4452;50.756;4.472;2024-03-22T09:26:18;10.90;99.90
8832;DHT22;4452;50.756;4.472;2024-03-22T09:28:46;10.90;99.90
8832;DHT22;4452;50.756;4.472;2024-03-22T09:31:12;11.00;99.90
8832;DHT22;4452;50.756;4.472;2024-03-22T09:33:37;11.00;99.90
8832;DHT22;4452;50.756;4.472;2024-03-22T09:36:03;11.10;99.90
8832;DHT22;4452;50.756;4.472;2024-03-22T09:38:29;11.30;99.90
8832;DHT22;4452;50.756;4.472;2024-03-22T09:40:55;11.30;99.90
8832;DHT22;4452;50.756;4.472;2024-03-22T09:43:22;11.30;99.90
8832;DHT22;4452;50.756;4.472;2024-03-22T09:45:49;11.20;99.90
8832;DHT22;4452;50.756;4.472;2024-03-22T09:48:18;11.10;99.90
8832;DHT22;4452;50.756;4.472;2024-03-22T09:50:45;11.10;99.90
8832;DHT22;4452;50.756;4.472;2024-03-22T09:53:12;11.20;99.90
8832;DHT22;4452;50.756;4.472;2024-03-22T09:55:39;11.20;99.90
8832;DHT22;4452;50.756;4.472;2024-03-22T09:58:09;11.20;99.90
8832;DHT22;4452;50.756;4.472;2024-03-22T10:00:35;11.30;99.90
8832;DHT22;4452;50.756;4.472;2024-03-22T10:03:01;11.30;99.90
8832;DHT22;4452;50.756;4.472;2024-03-22T10:05:29;11.50;99.90
8832;DHT22;4452;50.756;4.472;2024-03-22T10:07:55;11.40;99.90
8832;DHT22;4452;50.756;4.472;2024-03-22T10:10:21;11.60;99.90
8832;DHT22;4452;50.756;4.472;2024-03-22T10:12:47;11.40;99.90
8832;DHT22;4452;50.756;4.472;2024-03-22T10:15:13;11.40;99.90
8832;DHT22;4452;50.756;4.472;2024-03-22T10:17:39;11.40;99.90
8832;DHT22;4452;50.756;4.472;2024-03-22T10:20:06;11.50;99.90
8832;DHT22;4452;50.756;4.472;2024-03-22T10:22:54;11.50;99.90
8832;DHT22;4452;50.756;4.472;2024-03-22T10:25:21;11.70;99.90
8832;DHT22;4452;50.756;4.472;2024-03-22T10:27:47;11.50;99.90
8832;DHT22;4452;50.756;4.472;2024-03-22T10:30:15;11.30;99.90
8832;DHT22;4452;50.756;4.472;2024-03-22T10:32:44;11.50;99.90
8832;DHT22;4452;50.756;4.472;2024-03-22T10:35:14;11.50;99.90
8832;DHT22;4452;50.756;4.472;2024-03-22T10:37:40;11.50;99.90
8832;DHT22;4452;50.756;4.472;2024-03-22T10:40:08;11.50;99.90
8832;DHT22;4452;50.756;4.472;2024-03-22T10:42:38;11.60;99.90
8832;DHT22;4452;50.756;4.472;2024-03-22T10:45:06;11.50;99.90
8832;DHT22;4452;50.756;4.472;2024-03-22T10:47:34;11.60;99.90
8832;DHT22;4452;50.756;4.472;2024-03-22T10:50:10;11.50;99.90
8832;DHT22;4452;50.756;4.472;2024-03-22T10:55:12;11.80;99.90
8832;DHT22;4452;50.756;4.472;2024-03-22T10:57:42;11.80;99.90
8832;DHT22;4452;50.756;4.472;2024-03-22T11:00:09;11.80;99.90
8832;DHT22;4452;50.756;4.472;2024-03-22T11:02:37;11.90;99.90
8832;DHT22;4452;50.756;4.472;2024-03-22T11:05:06;11.90;99.90
8832;DHT22;4452;50.756;4.472;2024-03-22T11:07:32;12.00;99.90
8832;DHT22;4452;50.756;4.472;2024-03-22T11:10:00;12.20;99.90
8832;DHT22;4452;50.756;4.472;2024-03-22T11:12:28;12.20;99.90
8832;DHT22;4452;50.756;4.472;2024-03-22T11:14:56;12.20;99.90
8832;DHT22;4452;50.756;4.472;2024-03-22T11:17:21;12.20;99.90
8832;DHT22;4452;50.756;4.472;2024-03-22T11:19:51;12.10;99.90
8832;DHT22;4452;50.756;4.472;2024-03-22T11:22:17;12.20;99.90
8832;DHT22;4452;50.756;4.472;2024-03-22T11:24:43;12.20;99.90
8832;DHT22;4452;50.756;4.472;2024-03-22T11:27:10;12.20;99.90
8832;DHT22;4452;50.756;4.472;2024-03-22T11:29:37;12.20;99.90
8832;DHT22;4452;50.756;4.472;2024-03-22T11:32:10;12.30;99.90
8832;DHT22;4452;50.756;4.472;2024-03-22T11:34:38;12.30;99.90
8832;DHT22;4452;50.756;4.472;2024-03-22T11:37:05;12.30;99.90
8832;DHT22;4452;50.756;4.472;2024-03-22T11:39:36;12.20;99.90
8832;DHT22;4452;50.756;4.472;2024-03-22T11:42:05;12.20;99.90
8832;DHT22;4452;50.756;4.472;2024-03-22T11:44:32;12.20;99.90
8832;DHT22;4452;50.756;4.472;2024-03-22T11:46:58;12.20;99.90
8832;DHT22;4452;50.756;4.472;2024-03-22T11:49:24;12.30;99.90
8832;DHT22;4452;50.756;4.472;2024-03-22T11:51:52;12.20;99.90
8832;DHT22;4452;50.756;4.472;2024-03-22T11:54:21;12.20;99.90
8832;DHT22;4452;50.756;4.472;2024-03-22T11:56:46;12.30;99.90
8832;DHT22;4452;50.756;4.472;2024-03-22T11:59:12;12.30;99.90
8832;DHT22;4452;50.756;4.472;2024-03-22T12:01:38;12.30;99.90
8832;DHT22;4452;50.756;4.472;2024-03-22T12:04:05;12.20;99.90
8832;DHT22;4452;50.756;4.472;2024-03-22T12:06:36;12.20;99.90
8832;DHT22;4452;50.756;4.472;2024-03-22T12:09:02;12.30;99.90
8832;DHT22;4452;50.756;4.472;2024-03-22T12:11:29;12.50;99.90
8832;DHT22;4452;50.756;4.472;2024-03-22T12:13:54;12.70;99.90
8832;DHT22;4452;50.756;4.472;2024-03-22T12:16:20;12.70;99.90
8832;DHT22;4452;50.756;4.472;2024-03-22T12:18:46;12.70;99.90
8832;DHT22;4452;50.756;4.472;2024-03-22T12:21:11;12.90;99.90
8832;DHT22;4452;50.756;4.472;2024-03-22T12:23:37;12.60;99.90
8832;DHT22;4452;50.756;4.472;2024-03-22T12:26:03;12.40;99.90
8832;DHT22;4452;50.756;4.472;2024-03-22T12:28:28;12.50;99.90
8832;DHT22;4452;50.756;4.472;2024-03-22T12:30:54;12.40;99.90
8832;DHT22;4452;50.756;4.472;2024-03-22T12:33:20;12.60;99.90
8832;DHT22;4452;50.756;4.472;2024-03-22T12:35:46;12.80;99.90
8832;DHT22;4452;50.756;4.472;2024-03-22T12:38:13;12.70;99.90
8832;DHT22;4452;50.756;4.472;2024-03-22T12:40:40;12.50;99.90
8832;DHT22;4452;50.756;4.472;2024-03-22T12:43:07;12.80;99.90
8832;DHT22;4452;50.756;4.472;2024-03-22T12:45:34;13.10;99.90
8832;DHT22;4452;50.756;4.472;2024-03-22T12:48:00;12.70;99.90
8832;DHT22;4452;50.756;4.472;2024-03-22T12:50:26;12.70;99.90
8832;DHT22;4452;50.756;4.472;2024-03-22T12:52:52;12.90;99.90
8832;DHT22;4452;50.756;4.472;2024-03-22T12:55:18;12.70;99.90
8832;DHT22;4452;50.756;4.472;2024-03-22T12:57:43;12.80;99.90
8832;DHT22;4452;50.756;4.472;2024-03-22T13:00:09;12.60;99.90
8832;DHT22;4452;50.756;4.472;2024-03-22T13:02:39;12.40;99.90
8832;DHT22;4452;50.756;4.472;2024-03-22T13:05:06;12.30;99.90
8832;DHT22;4452;50.756;4.472;2024-03-22T13:07:32;12.10;99.90
8832;DHT22;4452;50.756;4.472;2024-03-22T13:09:57;12.20;99.90
8832;DHT22;4452;50.756;4.472;2024-03-22T13:12:26;12.30;99.90
8832;DHT22;4452;50.756;4.472;2024-03-22T13:14:52;12.10;99.90
8832;DHT22;4452;50.756;4.472;2024-03-22T13:17:18;12.10;99.90
8832;DHT22;4452;50.756;4.472;2024-03-22T13:19:44;12.10;99.90
8832;DHT22;4452;50.756;4.472;2024-03-22T13:22:14;12.10;99.90
8832;DHT22;4452;50.756;4.472;2024-03-22T13:24:48;12.20;99.90
8832;DHT22;4452;50.756;4.472;2024-03-22T13:27:16;12.20;99.90
8832;DHT22;4452;50.756;4.472;2024-03-22T13:29:42;12.30;99.90
8832;DHT22;4452;50.756;4.472;2024-03-22T13:32:07;12.00;99.90
8832;DHT22;4452;50.756;4.472;2024-03-22T13:34:39;12.00;99.90
8832;DHT22;4452;50.756;4.472;2024-03-22T13:37:05;12.00;99.90
8832;DHT22;4452;50.756;4.472;2024-03-22T13:39:33;12.00;99.90
8832;DHT22;4452;50.756;4.472;2024-03-22T13:41:59;12.00;99.90
8832;DHT22;4452;50.756;4.472;2024-03-22T13:44:25;12.10;99.90
8832;DHT22;4452;50.756;4.472;2024-03-22T13:46:51;12.20;99.90
8832;DHT22;4452;50.756;4.472;2024-03-22T13:49:18;12.40;99.90
8832;DHT22;4452;50.756;4.472;2024-03-22T13:51:46;12.60;99.90
8832;DHT22;4452;50.756;4.472;2024-03-22T13:54:12;12.60;99.90
8832;DHT22;4452;50.756;4.472;2024-03-22T13:56:38;12.60;99.90
8832;DHT22;4452;50.756;4.472;2024-03-22T13:59:05;12.60;99.90
8832;DHT22;4452;50.756;4.472;2024-03-22T14:01:32;12.30;99.90
8832;DHT22;4452;50.756;4.472;2024-03-22T14:04:00;12.20;99.90
8832;DHT22;4452;50.756;4.472;2024-03-22T14:06:31;12.40;99.90
8832;DHT22;4452;50.756;4.472;2024-03-22T14:09:00;12.60;99.90
8832;DHT22;4452;50.756;4.472;2024-03-22T14:11:31;12.50;99.90
8832;DHT22;4452;50.756;4.472;2024-03-22T14:13:57;12.10;99.90
8832;DHT22;4452;50.756;4.472;2024-03-22T14:16:23;12.00;99.90
8832;DHT22;4452;50.756;4.472;2024-03-22T14:18:49;12.00;99.90
8832;DHT22;4452;50.756;4.472;2024-03-22T14:21:16;11.70;99.90
8832;DHT22;4452;50.756;4.472;2024-03-22T14:23:46;11.80;99.90
8832;DHT22;4452;50.756;4.472;2024-03-22T14:26:12;11.60;99.90
8832;DHT22;4452;50.756;4.472;2024-03-22T14:28:38;11.60;99.90
8832;DHT22;4452;50.756;4.472;2024-03-22T14:31:06;11.50;99.90
8832;DHT22;4452;50.756;4.472;2024-03-22T14:33:34;11.40;99.90
8832;DHT22;4452;50.756;4.472;2024-03-22T14:36:04;11.40;99.90
8832;DHT22;4452;50.756;4.472;2024-03-22T14:38:30;11.50;99.90
8832;DHT22;4452;50.756;4.472;2024-03-22T14:40:56;11.40;99.90
8832;DHT22;4452;50.756;4.472;2024-03-22T14:43:24;11.30;99.90
8832;DHT22;4452;50.756;4.472;2024-03-22T14:45:54;11.00;99.90
8832;DHT22;4452;50.756;4.472;2024-03-22T14:48:20;11.00;99.90
8832;DHT22;4452;50.756;4.472;2024-03-22T14:50:47;11.00;99.90
8832;DHT22;4452;50.756;4.472;2024-03-22T14:53:14;11.00;99.90
8832;DHT22;4452;50.756;4.472;2024-03-22T14:55:40;10.80;99.90
8832;DHT22;4452;50.756;4.472;2024-03-22T14:58:06;10.80;99.90
8832;DHT22;4452;50.756;4.472;2024-03-22T15:00:32;10.80;99.90
8832;DHT22;4452;50.756;4.472;2024-03-22T15:02:59;10.90;99.90
8832;DHT22;4452;50.756;4.472;2024-03-22T15:05:24;10.80;99.90
8832;DHT22;4452;50.756;4.472;2024-03-22T15:07:50;10.80;99.90
8832;DHT22;4452;50.756;4.472;2024-03-22T15:10:16;10.80;99.90
8832;DHT22;4452;50.756;4.472;2024-03-22T15:12:41;10.90;99.90
8832;DHT22;4452;50.756;4.472;2024-03-22T15:15:07;10.80;99.90
8832;DHT22;4452;50.756;4.472;2024-03-22T15:17:33;11.00;99.90
8832;DHT22;4452;50.756;4.472;2024-03-22T15:20:00;10.80;99.90
8832;DHT22;4452;50.756;4.472;2024-03-22T15:22:26;10.80;99.90
8832;DHT22;4452;50.756;4.472;2024-03-22T15:24:51;10.70;99.90
8832;DHT22;4452;50.756;4.472;2024-03-22T15:27:18;10.60;99.90
8832;DHT22;4452;50.756;4.472;2024-03-22T15:29:44;10.60;99.90
8832;DHT22;4452;50.756;4.472;2024-03-22T15:32:10;10.60;99.90
8832;DHT22;4452;50.756;4.472;2024-03-22T15:34:36;10.50;99.90
8832;DHT22;4452;50.756;4.472;2024-03-22T15:37:02;10.60;99.90
8832;DHT22;4452;50.756;4.472;2024-03-22T15:39:27;10.50;99.90
8832;DHT22;4452;50.756;4.472;2024-03-22T15:41:53;10.50;99.90
8832;DHT22;4452;50.756;4.472;2024-03-22T15:44:19;10.40;99.90
8832;DHT22;4452;50.756;4.472;2024-03-22T15:46:44;10.40;99.90
8832;DHT22;4452;50.756;4.472;2024-03-22T15:49:11;10.40;99.90
8832;DHT22;4452;50.756;4.472;2024-03-22T15:51:36;10.40;99.90
8832;DHT22;4452;50.756;4.472;2024-03-22T15:54:05;10.40;99.90
8832;DHT22;4452;50.756;4.472;2024-03-22T15:56:31;10.50;99.90
8832;DHT22;4452;50.756;4.472;2024-03-22T15:58:57;10.50;99.90